Aérodrome :
LOGIN :

S'inscrire | Disclaimer

   EN    FR    IT 

 










Légende :    VFR   VFR Marginal   IFR   IFR Intensif   IFR Très Intensif
Visi : 
Plafond : 
>= 8 km
>= 3000ft
5 à 8 km
1000 à 3000 ft
1500m à 5 km
500 à 1000 ft
800 à 1500m
200 à 500 ft
< 800m
< 200 ft
Symboles :   Orages  Brouillard  Fortes neiges  Fortes précipitations  Vent > 20 kt
SIGMETs :   Divers  Orages  Givrage  Turbulence  Onde Orograph.  Cendres Volcan.







- Altitude de l'aérodrome : 233 ft
- Code IATA : REU


LERS - Reus Tarragona

DERNIER METAR :
  • 242130Z 08004KT 030V120 9999 FEW030 22/19 Q1016

METARs EXPIRÉS :
  • 242100Z 08005KT 030V130 9999 FEW030 22/19 Q1016
  • 242030Z 07004KT 020V130 9999 FEW030 22/19 Q1015
  • 242000Z 06003KT 360V110 9999 FEW030 22/18 Q1015
  • 241930Z 08003KT 030V140 CAVOK 22/19 Q1015
  • 241900Z 10006KT 050V150 CAVOK 22/19 Q1014

TAF TAF LERS
Valide du 24 à 21h jusqu'au 25 à 21h UTC


242000Z 2421/2521 04005KT CAVOK TX29/2512Z TN20/2505Z
BECMG 2506/2508 09012KT
Pas de NOTAMs connus pour ce terrain.



MET'MAP, la Météo Aéronautique d'un coup d'oeil ! - Copyright ORBIFLY Décembre 2007 - Disclaimer

ORBIFLY MET'MAP TEAM :

Programmation & Développement : Alexandra Zaïnal
Conception & Développement : Baudouin d'Aumeries
Co-Programmation & Développement : Marc-Olivier Méhu
Soutien technique & logistique : Manuel Goepfert

Contact : metmap@orbifly.com




SOURCES & CREDITS :

   NOAA